createdAt,value
2024-02-21T00:00:35.163Z,14.67
2024-02-21T00:03:03.596Z,14.83
2024-02-21T00:05:31.458Z,13.67
2024-02-21T00:08:01.366Z,13.97
2024-02-21T00:10:30.158Z,14.63
2024-02-21T00:12:58.007Z,14.87
2024-02-21T00:15:25.688Z,14.53
2024-02-21T00:17:53.706Z,14.90
2024-02-21T00:20:22.249Z,14.30
2024-02-21T00:22:50.528Z,14.10
2024-02-21T00:25:18.299Z,14.73
2024-02-21T00:27:46.671Z,13.80
2024-02-21T00:30:14.714Z,14.17
2024-02-21T00:32:42.492Z,14.50
2024-02-21T00:35:10.461Z,13.80
2024-02-21T00:37:38.494Z,13.40
2024-02-21T00:40:06.755Z,13.47
2024-02-21T00:42:34.560Z,13.37
2024-02-21T00:45:02.403Z,13.57
2024-02-21T00:47:32.179Z,14.63
2024-02-21T00:50:00.270Z,13.60
2024-02-21T00:52:28.185Z,12.70
2024-02-21T00:54:58.422Z,13.23
2024-02-21T00:57:26.502Z,13.57
2024-02-21T00:59:54.369Z,13.30
2024-02-21T01:02:22.157Z,13.07
2024-02-21T01:04:50.124Z,12.80
2024-02-21T01:07:18.249Z,11.93
2024-02-21T01:09:46.107Z,13.23
2024-02-21T01:12:13.905Z,12.77
2024-02-21T01:14:41.634Z,13.20
2024-02-21T01:17:09.528Z,12.50
2024-02-21T01:19:37.728Z,12.73
2024-02-21T01:22:05.610Z,12.27
2024-02-21T01:24:33.456Z,12.97
2024-02-21T01:27:01.241Z,11.60
2024-02-21T01:29:29.142Z,12.63
2024-02-21T01:31:57.123Z,12.67
2024-02-21T01:34:25.145Z,12.00
2024-02-21T01:36:53.024Z,12.17
2024-02-21T01:39:21.001Z,17.50
2024-02-21T01:41:48.782Z,11.87
2024-02-21T01:44:16.461Z,12.00
2024-02-21T01:46:44.823Z,12.03
2024-02-21T01:49:12.979Z,12.73
2024-02-21T01:51:41.103Z,12.30
2024-02-21T01:54:08.920Z,11.87
2024-02-21T01:56:36.831Z,12.10
2024-02-21T01:59:05.045Z,12.10
2024-02-21T02:01:32.865Z,12.87
2024-02-21T02:04:01.677Z,12.30
2024-02-21T02:06:29.498Z,12.73
2024-02-21T02:08:57.518Z,12.23
2024-02-21T02:11:25.412Z,12.43
2024-02-21T02:13:54.810Z,11.77
2024-02-21T02:16:22.901Z,12.23
2024-02-21T02:18:51.003Z,12.73
2024-02-21T02:21:25.800Z,12.80
2024-02-21T02:23:54.044Z,12.60
2024-02-21T02:26:22.130Z,13.03
2024-02-21T02:28:50.118Z,12.10
2024-02-21T02:31:18.562Z,12.50
2024-02-21T02:33:46.780Z,13.07
2024-02-21T02:36:14.766Z,12.27
2024-02-21T02:38:42.494Z,12.17
2024-02-21T02:41:10.374Z,13.23
2024-02-21T02:43:38.730Z,13.07
2024-02-21T02:46:06.758Z,12.37
2024-02-21T02:48:34.634Z,13.33
2024-02-21T02:51:02.567Z,13.10
2024-02-21T02:53:30.946Z,13.37
2024-02-21T02:55:59.125Z,12.80
2024-02-21T02:58:27.612Z,12.50
2024-02-21T03:00:55.315Z,12.40
2024-02-21T03:03:23.002Z,13.23
2024-02-21T03:05:50.815Z,13.07
2024-02-21T03:08:18.795Z,12.43
2024-02-21T03:10:46.609Z,12.27
2024-02-21T03:13:14.352Z,12.83
2024-02-21T03:15:42.285Z,12.97
2024-02-21T03:18:10.843Z,13.37
2024-02-21T03:20:38.652Z,12.73
2024-02-21T03:23:06.366Z,12.97
2024-02-21T03:25:34.263Z,12.30
2024-02-21T03:28:03.174Z,12.57
2024-02-21T03:30:30.879Z,12.53
2024-02-21T03:32:58.636Z,13.40
2024-02-21T03:35:28.264Z,12.47
2024-02-21T03:37:56.350Z,12.93
2024-02-21T03:40:24.855Z,12.80
2024-02-21T03:42:53.355Z,12.93
2024-02-21T03:45:21.042Z,12.93
2024-02-21T03:47:49.520Z,13.93
2024-02-21T03:50:17.976Z,13.87
2024-02-21T03:52:45.839Z,12.80
2024-02-21T03:55:13.656Z,13.50
2024-02-21T03:57:41.510Z,13.13
2024-02-21T04:00:12.535Z,13.27
2024-02-21T04:02:40.370Z,13.30
2024-02-21T04:05:12.642Z,12.63
2024-02-21T04:07:40.803Z,12.82
2024-02-21T04:10:08.905Z,12.53
2024-02-21T04:12:36.783Z,12.50
2024-02-21T04:15:04.940Z,12.67
2024-02-21T04:17:32.776Z,14.00
2024-02-21T04:20:09.597Z,13.07
2024-02-21T04:22:37.649Z,13.47
2024-02-21T04:25:05.456Z,12.27
2024-02-21T04:27:33.420Z,12.97
2024-02-21T04:30:01.371Z,12.53
2024-02-21T04:32:31.491Z,13.63
2024-02-21T04:34:59.413Z,12.60
2024-02-21T04:37:27.315Z,11.83
2024-02-21T04:39:55.032Z,13.77
2024-02-21T04:42:22.779Z,12.60
2024-02-21T04:44:52.775Z,13.87
2024-02-21T04:47:27.230Z,13.45
2024-02-21T04:49:55.127Z,12.98
2024-02-21T04:52:22.988Z,13.07
2024-02-21T04:54:51.326Z,12.05
2024-02-21T04:57:19.078Z,13.43
2024-02-21T04:59:48.411Z,13.30
2024-02-21T05:02:16.577Z,13.18
2024-02-21T05:04:45.591Z,16.73
2024-02-21T05:07:14.035Z,12.83
2024-02-21T05:09:41.983Z,13.50
2024-02-21T05:12:09.898Z,13.63
2024-02-21T05:14:37.611Z,13.35
2024-02-21T05:17:05.992Z,13.27
2024-02-21T05:19:34.111Z,12.37
2024-02-21T05:22:01.930Z,13.30
2024-02-21T05:24:31.030Z,12.98
2024-02-21T05:26:58.841Z,13.43
2024-02-21T05:29:26.861Z,13.50
2024-02-21T05:31:54.794Z,13.00
2024-02-21T05:34:23.073Z,14.15
2024-02-21T05:36:51.160Z,13.43
2024-02-21T05:39:20.010Z,13.20
2024-02-21T05:41:48.657Z,13.73
2024-02-21T05:44:16.434Z,12.75
2024-02-21T05:46:45.220Z,13.25
2024-02-21T05:49:13.651Z,13.07
2024-02-21T05:51:41.520Z,13.32
2024-02-21T05:54:09.268Z,12.50
2024-02-21T05:56:37.316Z,13.02
2024-02-21T05:59:05.699Z,13.15
2024-02-21T06:01:35.394Z,12.82
2024-02-21T06:04:03.817Z,13.18
2024-02-21T06:06:32.582Z,13.93
2024-02-21T06:09:01.437Z,13.30
2024-02-21T06:11:29.327Z,13.50
2024-02-21T06:13:57.388Z,14.05
2024-02-21T06:16:25.967Z,13.80
2024-02-21T06:18:53.905Z,13.63
2024-02-21T06:21:21.736Z,12.38
2024-02-21T06:23:49.494Z,14.15
2024-02-21T06:26:17.349Z,13.15
2024-02-21T06:28:45.215Z,14.10
2024-02-21T06:31:13.258Z,13.88
2024-02-21T06:33:41.108Z,13.80
2024-02-21T06:36:09.591Z,13.95
2024-02-21T06:38:37.412Z,13.65
2024-02-21T06:41:05.832Z,14.43
2024-02-21T06:43:33.639Z,13.68
2024-02-21T06:46:01.743Z,14.35
2024-02-21T06:48:29.930Z,14.55
2024-02-21T06:50:57.746Z,13.90
2024-02-21T06:53:25.454Z,12.60
2024-02-21T06:55:54.130Z,13.38
2024-02-21T06:58:22.092Z,13.35
2024-02-21T07:00:50.048Z,13.90
2024-02-21T07:03:17.803Z,13.25
2024-02-21T07:05:47.917Z,13.70
2024-02-21T07:08:15.929Z,11.60
2024-02-21T07:10:43.940Z,13.25
2024-02-21T07:13:11.708Z,13.80
2024-02-21T07:15:39.806Z,13.60
2024-02-21T07:18:08.220Z,13.65
2024-02-21T07:20:38.084Z,13.43
2024-02-21T07:23:06.565Z,12.90
2024-02-21T07:25:34.443Z,13.18
2024-02-21T07:28:04.249Z,13.27
2024-02-21T07:30:32.228Z,12.20
2024-02-21T07:33:00.043Z,12.75
2024-02-21T07:35:28.032Z,12.55
2024-02-21T07:37:55.946Z,13.57
2024-02-21T07:40:25.360Z,13.25
2024-02-21T07:42:54.218Z,12.90
2024-02-21T07:45:25.319Z,13.55
2024-02-21T07:47:53.359Z,13.07
2024-02-21T07:50:21.500Z,13.82
2024-02-21T07:52:49.403Z,12.65
2024-02-21T07:55:17.311Z,13.05
2024-02-21T07:57:47.041Z,14.13
2024-02-21T08:00:21.362Z,13.55
2024-02-21T08:02:50.666Z,12.68
2024-02-21T08:05:19.093Z,13.40
2024-02-21T08:07:47.680Z,13.43
2024-02-21T08:10:15.663Z,13.43
2024-02-21T08:12:43.576Z,13.10
2024-02-21T08:15:13.183Z,12.90
2024-02-21T08:17:41.087Z,12.50
2024-02-21T08:20:09.174Z,13.48
2024-02-21T08:22:40.013Z,12.93
2024-02-21T08:25:08.018Z,13.55
2024-02-21T08:27:36.863Z,12.75
2024-02-21T08:30:05.057Z,13.85
2024-02-21T08:32:33.062Z,12.90
2024-02-21T08:35:00.959Z,13.30
2024-02-21T08:37:29.849Z,13.35
2024-02-21T08:39:58.184Z,12.82
2024-02-21T08:42:26.116Z,12.90
2024-02-21T08:44:53.802Z,12.93
2024-02-21T08:47:22.131Z,12.73
2024-02-21T08:49:49.935Z,12.95
2024-02-21T08:52:17.839Z,13.60
2024-02-21T08:54:45.781Z,13.23
2024-02-21T08:57:15.281Z,12.70
2024-02-21T08:59:42.988Z,13.55
2024-02-21T09:02:10.814Z,13.20
2024-02-21T09:04:38.750Z,12.88
2024-02-21T09:07:07.789Z,12.63
2024-02-21T09:09:35.699Z,13.25
2024-02-21T09:12:07.281Z,12.40
2024-02-21T09:14:36.884Z,12.83
2024-02-21T09:17:05.013Z,12.80
2024-02-21T09:19:33.076Z,12.23
2024-02-21T09:22:01.146Z,13.05
2024-02-21T09:24:28.848Z,12.98
2024-02-21T09:26:57.182Z,12.48
2024-02-21T09:29:27.553Z,12.98
2024-02-21T09:31:56.261Z,11.55
2024-02-21T09:34:24.503Z,11.95
2024-02-21T09:36:52.952Z,12.43
2024-02-21T09:39:20.806Z,12.55
2024-02-21T09:42:01.209Z,12.10
2024-02-21T09:44:31.989Z,13.05
2024-02-21T09:47:08.186Z,13.23
2024-02-21T09:49:39.831Z,12.27
2024-02-21T09:52:08.617Z,12.65
2024-02-21T09:54:36.694Z,11.65
2024-02-21T09:57:07.241Z,11.90
2024-02-21T09:59:35.961Z,12.43
2024-02-21T10:02:04.324Z,12.35
2024-02-21T10:04:33.740Z,12.23
2024-02-21T10:07:02.329Z,11.23
2024-02-21T10:09:31.243Z,11.70
2024-02-21T10:12:11.507Z,10.98
2024-02-21T10:14:39.662Z,11.13
2024-02-21T10:17:11.908Z,10.85
2024-02-21T10:19:43.332Z,11.32
2024-02-21T10:22:11.656Z,10.95
2024-02-21T10:24:42.701Z,10.35
2024-02-21T10:27:14.980Z,10.30
2024-02-21T10:29:43.645Z,10.48
2024-02-21T10:32:13.216Z,10.40
2024-02-21T10:34:42.358Z,10.50
2024-02-21T10:37:11.820Z,10.43
2024-02-21T10:39:40.774Z,10.50
2024-02-21T10:42:09.267Z,9.65
2024-02-21T10:44:41.783Z,10.57
2024-02-21T10:47:10.889Z,9.93
2024-02-21T10:49:47.004Z,10.07
2024-02-21T10:52:24.643Z,9.25
2024-02-21T10:54:52.435Z,9.95
2024-02-21T10:57:21.655Z,10.02
2024-02-21T10:59:50.431Z,9.23
2024-02-21T11:02:18.411Z,9.82
2024-02-21T11:04:47.320Z,9.73
2024-02-21T11:07:15.834Z,10.70
2024-02-21T11:09:53.569Z,9.90
2024-02-21T11:12:24.776Z,9.80
2024-02-21T11:14:52.840Z,9.77
2024-02-21T11:17:28.457Z,9.35
2024-02-21T11:19:56.542Z,10.70
2024-02-21T11:22:26.300Z,10.27
2024-02-21T11:24:54.989Z,10.27
2024-02-21T11:27:26.174Z,9.20
2024-02-21T11:29:58.546Z,9.90
2024-02-21T11:32:27.873Z,10.05
2024-02-21T11:35:03.883Z,10.40
2024-02-21T11:37:39.123Z,11.13
2024-02-21T11:40:12.632Z,9.40
2024-02-21T11:42:41.396Z,9.40
2024-02-21T11:45:12.532Z,10.13
2024-02-21T11:47:42.698Z,10.18
2024-02-21T11:50:15.421Z,9.75
2024-02-21T11:52:44.960Z,9.43
2024-02-21T11:55:12.682Z,9.25
2024-02-21T11:57:45.445Z,9.40
2024-02-21T12:00:15.894Z,10.38
2024-02-21T12:02:43.733Z,10.07
2024-02-21T12:05:12.445Z,10.02
2024-02-21T12:07:41.868Z,10.48
2024-02-21T12:10:13.404Z,10.50
2024-02-21T12:12:42.129Z,9.85
2024-02-21T12:15:10.993Z,10.43
2024-02-21T12:17:39.658Z,10.43
2024-02-21T12:20:13.231Z,10.93
2024-02-21T12:22:41.697Z,9.82
2024-02-21T12:25:19.987Z,10.02
2024-02-21T12:27:48.611Z,10.23
2024-02-21T12:30:16.556Z,10.65
2024-02-21T12:32:44.412Z,10.63
2024-02-21T12:35:12.416Z,10.88
2024-02-21T12:37:40.865Z,10.35
2024-02-21T12:40:09.601Z,10.60
2024-02-21T12:42:37.456Z,9.70
2024-02-21T12:45:06.317Z,10.65
2024-02-21T12:47:34.658Z,10.57
2024-02-21T12:50:04.954Z,9.55
2024-02-21T12:52:33.243Z,10.23
2024-02-21T12:55:01.070Z,10.07
2024-02-21T12:57:29.681Z,10.10
2024-02-21T12:59:58.053Z,10.80
2024-02-21T13:02:26.054Z,9.30
2024-02-21T13:04:54.321Z,18.17
2024-02-21T13:07:22.246Z,10.75
2024-02-21T13:09:50.130Z,10.02
2024-02-21T13:12:18.028Z,9.57
2024-02-21T13:14:45.822Z,9.65
2024-02-21T13:17:16.364Z,9.60
2024-02-21T13:19:44.471Z,10.00
2024-02-21T13:22:12.546Z,10.90
2024-02-21T13:24:40.361Z,10.30
2024-02-21T13:27:08.935Z,10.15
2024-02-21T13:29:37.229Z,10.27
2024-02-21T13:32:05.413Z,10.23
2024-02-21T13:34:34.255Z,10.25
2024-02-21T13:37:02.163Z,10.13
2024-02-21T13:39:30.021Z,9.98
2024-02-21T13:41:57.797Z,9.93
2024-02-21T13:44:25.686Z,9.30
2024-02-21T13:46:53.506Z,9.55
2024-02-21T13:49:21.592Z,10.05
2024-02-21T13:51:49.737Z,10.43
2024-02-21T13:54:20.588Z,10.02
2024-02-21T13:56:48.568Z,10.15
2024-02-21T13:59:18.745Z,9.35
2024-02-21T14:01:46.515Z,9.15
2024-02-21T14:04:14.268Z,9.98
2024-02-21T14:06:45.094Z,9.93
2024-02-21T14:09:13.295Z,9.63
2024-02-21T14:11:42.817Z,10.30
2024-02-21T14:14:10.911Z,10.27
2024-02-21T14:16:38.750Z,10.38
2024-02-21T14:19:08.554Z,9.85
2024-02-21T14:21:39.834Z,10.30
2024-02-21T14:24:08.415Z,9.63
2024-02-21T14:26:37.321Z,9.65
2024-02-21T14:29:05.934Z,9.20
2024-02-21T14:31:34.009Z,10.18
2024-02-21T14:34:03.800Z,9.45
2024-02-21T14:36:33.722Z,9.48
2024-02-21T14:39:01.754Z,10.15
2024-02-21T14:41:31.165Z,9.95
2024-02-21T14:44:04.288Z,10.23
2024-02-21T14:46:34.256Z,9.20
2024-02-21T14:49:02.484Z,9.70
2024-02-21T14:51:30.408Z,9.35
2024-02-21T14:53:58.088Z,9.95
2024-02-21T14:56:25.907Z,10.80
2024-02-21T14:58:56.449Z,10.25
2024-02-21T15:01:26.551Z,9.65
2024-02-21T15:03:54.399Z,9.20
2024-02-21T15:06:22.976Z,9.48
2024-02-21T15:08:51.910Z,10.38
2024-02-21T15:11:19.838Z,10.13
2024-02-21T15:13:48.160Z,9.68
2024-02-21T15:16:17.218Z,9.68
2024-02-21T15:18:45.517Z,10.38
2024-02-21T15:21:15.320Z,10.48
2024-02-21T15:23:43.608Z,10.20
2024-02-21T15:26:12.568Z,10.23
2024-02-21T15:28:40.595Z,10.70
2024-02-21T15:31:08.453Z,11.48
2024-02-21T15:33:39.516Z,11.30
2024-02-21T15:36:07.933Z,11.88
2024-02-21T15:38:36.831Z,11.35
2024-02-21T15:41:04.907Z,11.48
2024-02-21T15:43:32.786Z,11.82
2024-02-21T15:46:02.096Z,12.60
2024-02-21T15:48:30.579Z,11.88
2024-02-21T15:50:59.415Z,11.30
2024-02-21T15:53:29.902Z,11.57
2024-02-21T15:55:58.262Z,11.45
2024-02-21T15:58:26.230Z,11.77
2024-02-21T16:00:54.429Z,12.18
2024-02-21T16:03:23.352Z,11.77
2024-02-21T16:05:51.792Z,10.75
2024-02-21T16:08:19.994Z,11.57
2024-02-21T16:10:48.053Z,14.85
2024-02-21T16:13:16.007Z,13.27
2024-02-21T16:15:44.268Z,10.48
2024-02-21T16:18:12.853Z,12.50
2024-02-21T16:20:41.425Z,11.98
2024-02-21T16:23:09.825Z,12.32
2024-02-21T16:25:37.744Z,12.90
2024-02-21T16:28:06.081Z,12.15
2024-02-21T16:30:34.026Z,12.80
2024-02-21T16:33:02.905Z,12.57
2024-02-21T16:35:32.477Z,12.45
2024-02-21T16:38:00.353Z,13.32
2024-02-21T16:40:28.118Z,13.25
2024-02-21T16:42:55.995Z,12.98
2024-02-21T16:45:23.749Z,13.50
2024-02-21T16:47:51.651Z,15.23
2024-02-21T16:50:20.094Z,13.77
2024-02-21T16:52:48.641Z,12.65
2024-02-21T16:55:17.256Z,13.85
2024-02-21T16:57:47.256Z,14.00
2024-02-21T17:00:15.354Z,13.48
2024-02-21T17:02:51.763Z,13.90
2024-02-21T17:05:27.045Z,12.38
2024-02-21T17:07:56.169Z,13.55
2024-02-21T17:10:24.923Z,13.98
2024-02-21T17:12:53.479Z,14.15
2024-02-21T17:15:21.364Z,14.00
2024-02-21T17:17:49.675Z,13.68
2024-02-21T17:20:18.126Z,14.30
2024-02-21T17:22:47.044Z,14.30
2024-02-21T17:25:15.005Z,14.25
2024-02-21T17:27:42.942Z,13.82
2024-02-21T17:30:11.320Z,14.95
2024-02-21T17:32:39.279Z,14.88
2024-02-21T17:35:07.347Z,14.98
2024-02-21T17:37:35.680Z,13.95
2024-02-21T17:40:08.876Z,15.63
2024-02-21T17:42:37.106Z,15.18
2024-02-21T17:45:05.686Z,14.82
2024-02-21T17:47:34.291Z,15.30
2024-02-21T17:50:02.581Z,14.40
2024-02-21T17:52:32.064Z,15.18
2024-02-21T17:54:59.911Z,15.82
2024-02-21T17:57:27.955Z,15.95
2024-02-21T17:59:55.875Z,15.35
2024-02-21T18:02:25.587Z,14.73
2024-02-21T18:04:53.852Z,14.95
2024-02-21T18:07:22.124Z,14.82
2024-02-21T18:09:52.036Z,15.38
2024-02-21T18:12:20.063Z,16.25
2024-02-21T18:14:47.993Z,16.52
2024-02-21T18:17:16.149Z,15.60
2024-02-21T18:19:44.789Z,16.23
2024-02-21T18:22:12.852Z,16.00
2024-02-21T18:24:40.704Z,16.75
2024-02-21T18:27:08.683Z,16.17
2024-02-21T18:29:39.927Z,17.15
2024-02-21T18:32:14.487Z,17.85
2024-02-21T18:34:42.745Z,16.15
2024-02-21T18:37:12.129Z,17.35
2024-02-21T18:39:40.057Z,17.70
2024-02-21T18:42:08.917Z,18.08
2024-02-21T18:44:39.248Z,17.63
2024-02-21T18:47:07.848Z,16.70
2024-02-21T18:49:38.502Z,17.58
2024-02-21T18:52:07.893Z,18.30
2024-02-21T18:54:40.870Z,18.25
2024-02-21T18:57:08.815Z,18.23
2024-02-21T18:59:36.841Z,17.83
2024-02-21T19:02:04.672Z,16.90
2024-02-21T19:04:32.642Z,18.63
2024-02-21T19:07:00.904Z,18.58
2024-02-21T19:09:28.789Z,18.02
2024-02-21T19:11:56.935Z,18.13
2024-02-21T19:14:24.788Z,17.92
2024-02-21T19:16:54.949Z,18.35
2024-02-21T19:19:24.527Z,17.80
2024-02-21T19:21:53.907Z,18.10
2024-02-21T19:24:40.487Z,19.02
2024-02-21T19:27:08.777Z,18.13
2024-02-21T19:29:36.617Z,18.23
2024-02-21T19:32:04.854Z,17.77
2024-02-21T19:34:37.885Z,18.58
2024-02-21T19:37:07.956Z,19.20
2024-02-21T19:39:35.821Z,18.98
2024-02-21T19:42:03.576Z,17.85
2024-02-21T19:44:32.186Z,18.35
2024-02-21T19:47:00.181Z,18.25
2024-02-21T19:49:28.264Z,17.42
2024-02-21T19:51:56.055Z,18.92
2024-02-21T19:54:25.663Z,17.08
2024-02-21T19:56:54.151Z,17.52
2024-02-21T19:59:22.236Z,17.65
2024-02-21T20:01:52.840Z,17.63
2024-02-21T20:04:21.436Z,18.60
2024-02-21T20:06:50.031Z,18.58
2024-02-21T20:09:17.952Z,19.00
2024-02-21T20:11:46.046Z,18.42
2024-02-21T20:14:14.749Z,18.35
2024-02-21T20:16:45.340Z,17.85
2024-02-21T20:19:15.183Z,19.05
2024-02-21T20:21:44.718Z,18.50
2024-02-21T20:24:23.831Z,19.20
2024-02-21T20:27:00.479Z,18.10
2024-02-21T20:29:28.521Z,18.58
2024-02-21T20:31:58.735Z,17.98
2024-02-21T20:34:31.439Z,19.05
2024-02-21T20:36:59.766Z,19.42
2024-02-21T20:39:32.041Z,19.48
2024-02-21T20:41:59.897Z,19.05
2024-02-21T20:44:28.568Z,19.25
2024-02-21T20:46:56.889Z,20.23
2024-02-21T20:49:26.556Z,20.05
2024-02-21T20:51:55.840Z,19.70
2024-02-21T20:54:23.626Z,20.50
2024-02-21T20:56:51.518Z,19.60
2024-02-21T20:59:20.505Z,19.55
2024-02-21T21:01:57.751Z,19.85
2024-02-21T21:04:30.432Z,18.73
2024-02-21T21:06:59.353Z,20.55
2024-02-21T21:09:29.784Z,20.20
2024-02-21T21:11:58.114Z,20.00
2024-02-21T21:14:28.757Z,20.40
2024-02-21T21:16:56.669Z,23.25
2024-02-21T21:19:24.785Z,20.65
2024-02-21T21:21:52.669Z,21.10
2024-02-21T21:24:20.418Z,20.67
2024-02-21T21:26:48.341Z,20.70
2024-02-21T21:29:16.298Z,20.15
2024-02-21T21:31:45.390Z,20.52
2024-02-21T21:34:14.223Z,20.58
2024-02-21T21:36:42.024Z,20.83
2024-02-21T21:39:10.492Z,21.55
2024-02-21T21:41:45.996Z,21.20
2024-02-21T21:44:14.885Z,19.75
2024-02-21T21:46:45.618Z,21.10
2024-02-21T21:49:14.013Z,23.55
2024-02-21T21:51:41.764Z,22.02
2024-02-21T21:54:09.617Z,21.23
2024-02-21T21:56:38.021Z,22.15
2024-02-21T21:59:06.382Z,20.73
2024-02-21T22:01:35.413Z,22.25
2024-02-21T22:04:03.808Z,22.08
2024-02-21T22:06:32.617Z,21.13
2024-02-21T22:09:00.628Z,21.17
2024-02-21T22:11:28.877Z,20.90
2024-02-21T22:13:56.676Z,21.90
2024-02-21T22:16:24.501Z,20.77
2024-02-21T22:18:52.781Z,20.73
2024-02-21T22:21:21.636Z,21.73
2024-02-21T22:23:50.463Z,21.42
2024-02-21T22:26:19.960Z,20.85
2024-02-21T22:28:51.388Z,20.90
2024-02-21T22:31:19.650Z,21.65
2024-02-21T22:33:47.356Z,20.50
2024-02-21T22:36:20.605Z,20.95
2024-02-21T22:38:50.896Z,20.60
2024-02-21T22:41:20.778Z,20.00
2024-02-21T22:43:49.221Z,20.58
2024-02-21T22:46:17.118Z,21.45
2024-02-21T22:48:46.201Z,20.23
2024-02-21T22:51:14.563Z,20.80
2024-02-21T22:53:42.247Z,20.85
2024-02-21T22:56:10.346Z,20.33
2024-02-21T22:58:38.371Z,21.10
2024-02-21T23:01:23.893Z,21.33
2024-02-21T23:03:51.749Z,20.60
2024-02-21T23:06:21.447Z,20.40
2024-02-21T23:08:50.930Z,20.50
2024-02-21T23:11:18.778Z,20.20
2024-02-21T23:13:46.804Z,22.33
2024-02-21T23:16:17.653Z,20.27
2024-02-21T23:18:45.471Z,21.48
2024-02-21T23:21:13.807Z,22.05
2024-02-21T23:23:41.536Z,21.23
2024-02-21T23:26:11.834Z,20.17
2024-02-21T23:28:46.105Z,21.80
2024-02-21T23:31:14.696Z,20.75
2024-02-21T23:33:43.288Z,21.38
2024-02-21T23:36:11.385Z,20.95
2024-02-21T23:38:45.157Z,21.25
2024-02-21T23:41:16.894Z,21.10
2024-02-21T23:43:45.481Z,22.40
2024-02-21T23:46:13.463Z,22.55
2024-02-21T23:48:42.225Z,21.90
2024-02-21T23:51:12.963Z,21.60
2024-02-21T23:53:41.033Z,21.35
2024-02-21T23:56:11.410Z,21.70
2024-02-21T23:58:39.954Z,21.55
